createdAt,value
2017-04-02T00:00:16.286Z,14.83
2017-04-02T00:00:42.790Z,14.87
2017-04-02T00:01:04.489Z,14.80
2017-04-02T00:01:35.807Z,14.80
2017-04-02T00:01:57.621Z,14.89
2017-04-02T00:02:19.387Z,14.92
2017-04-02T00:02:45.971Z,14.86
2017-04-02T00:03:07.739Z,14.81
2017-04-02T00:03:29.447Z,14.85
2017-04-02T00:03:51.154Z,14.91
2017-04-02T00:04:12.875Z,14.90
2017-04-02T00:04:34.628Z,14.73
2017-04-02T00:05:10.685Z,14.60
2017-04-02T00:05:32.928Z,14.57
2017-04-02T00:05:59.484Z,14.75
2017-04-02T00:06:21.190Z,14.77
2017-04-02T00:06:42.882Z,14.84
2017-04-02T00:07:14.202Z,14.83
2017-04-02T00:07:35.890Z,14.85
2017-04-02T00:07:57.603Z,14.95
2017-04-02T00:08:28.920Z,15.09
2017-04-02T00:08:50.642Z,15.04
2017-04-02T00:09:21.901Z,14.85
2017-04-02T00:09:43.687Z,14.78
2017-04-02T00:10:14.955Z,14.84
2017-04-02T00:10:36.645Z,14.88
2017-04-02T00:11:03.167Z,15.02
2017-04-02T00:11:24.865Z,14.99
2017-04-02T00:11:46.583Z,14.95
2017-04-02T00:12:13.144Z,14.98
2017-04-02T00:12:34.844Z,14.85
2017-04-02T00:12:56.559Z,14.90
2017-04-02T00:13:27.854Z,14.90
2017-04-02T00:13:49.550Z,14.95
2017-04-02T00:14:20.809Z,14.96
2017-04-02T00:14:42.593Z,15.02
2017-04-02T00:15:04.303Z,14.98
2017-04-02T00:15:30.796Z,14.69
2017-04-02T00:15:52.625Z,14.79
2017-04-02T00:16:14.325Z,14.72
2017-04-02T00:16:36.043Z,14.86
2017-04-02T00:16:57.848Z,14.99
2017-04-02T00:18:05.201Z,14.76
2017-04-02T00:18:26.977Z,14.86
2017-04-02T00:18:48.675Z,14.88
2017-04-02T00:19:15.169Z,14.73
2017-04-02T00:19:36.867Z,14.79
2017-04-02T00:19:58.683Z,14.81
2017-04-02T00:20:29.964Z,14.82
2017-04-02T00:20:51.666Z,14.88
2017-04-02T00:21:13.432Z,14.99
2017-04-02T00:21:40.923Z,15.02
2017-04-02T00:22:02.623Z,14.97
2017-04-02T00:22:33.931Z,14.81
2017-04-02T00:22:55.653Z,14.73
2017-04-02T00:23:26.921Z,14.77
2017-04-02T00:23:48.680Z,14.86
2017-04-02T00:24:10.381Z,14.90
2017-04-02T00:24:36.868Z,14.87
2017-04-02T00:24:58.606Z,14.90
2017-04-02T00:25:34.768Z,15.01
2017-04-02T00:25:59.600Z,14.97
2017-04-02T00:26:21.326Z,15.10
2017-04-02T00:26:52.656Z,15.25
2017-04-02T00:27:14.367Z,15.25
2017-04-02T00:28:07.385Z,15.25
2017-04-02T00:28:29.081Z,15.15
2017-04-02T00:28:50.784Z,15.10
2017-04-02T00:29:12.479Z,15.13
2017-04-02T00:29:43.799Z,15.07
2017-04-02T00:30:05.543Z,15.04
2017-04-02T00:30:27.252Z,14.96
2017-04-02T00:30:58.563Z,14.99
2017-04-02T00:31:20.250Z,15.04
2017-04-02T00:31:51.499Z,15.02
2017-04-02T00:32:13.259Z,15.08
2017-04-02T00:32:44.588Z,14.95
2017-04-02T00:33:06.343Z,15.01
2017-04-02T00:33:37.662Z,15.03
2017-04-02T00:33:59.423Z,15.11
2017-04-02T00:34:35.458Z,15.07
2017-04-02T00:34:57.740Z,15.14
2017-04-02T00:35:19.525Z,15.26
2017-04-02T00:35:46.013Z,15.27
2017-04-02T00:36:07.704Z,15.34
2017-04-02T00:36:29.476Z,15.30
2017-04-02T00:37:05.528Z,15.31
2017-04-02T00:37:32.558Z,15.17
2017-04-02T00:37:54.316Z,14.97
2017-04-02T00:38:25.596Z,14.82
2017-04-02T00:38:47.330Z,14.86
2017-04-02T00:39:18.655Z,14.87
2017-04-02T00:39:40.357Z,14.79
2017-04-02T00:40:06.829Z,14.69
2017-04-02T00:40:28.570Z,14.69
2017-04-02T00:40:55.039Z,14.75
2017-04-02T00:41:16.752Z,14.84
2017-04-02T00:41:38.456Z,14.95
2017-04-02T00:42:14.618Z,14.65
2017-04-02T00:42:36.915Z,14.62
2017-04-02T00:43:03.402Z,14.71
2017-04-02T00:43:30.008Z,14.91
2017-04-02T00:43:51.714Z,14.99
2017-04-02T00:44:18.178Z,14.98
2017-04-02T00:44:39.877Z,14.93
2017-04-02T00:45:01.622Z,15.00
2017-04-02T00:45:32.879Z,15.20
2017-04-02T00:45:54.562Z,15.03
2017-04-02T00:46:16.333Z,14.89
2017-04-02T00:46:47.611Z,14.91
2017-04-02T00:47:09.320Z,14.93
2017-04-02T00:47:31.102Z,14.83
2017-04-02T00:47:52.815Z,14.78
2017-04-02T00:48:14.516Z,14.75
2017-04-02T00:48:36.234Z,14.60
2017-04-02T00:48:57.985Z,14.53
2017-04-02T00:49:19.678Z,14.73
2017-04-02T00:49:46.168Z,14.80
2017-04-02T00:50:07.927Z,14.78
2017-04-02T00:51:10.436Z,14.79
2017-04-02T00:52:12.928Z,14.80
2017-04-02T00:52:44.182Z,14.82
2017-04-02T00:53:05.925Z,14.81
2017-04-02T00:53:27.627Z,14.88
2017-04-02T00:53:54.098Z,14.93
2017-04-02T00:54:15.808Z,14.96
2017-04-02T00:55:18.319Z,15.13
2017-04-02T00:55:40.042Z,15.15
2017-04-02T00:56:11.410Z,15.20
2017-04-02T00:56:33.112Z,15.23
2017-04-02T00:57:04.360Z,15.19
2017-04-02T00:57:26.073Z,15.20
2017-04-02T00:57:57.328Z,15.13
2017-04-02T00:58:19.022Z,15.19
2017-04-02T00:58:50.404Z,15.11
2017-04-02T00:59:12.109Z,14.85
2017-04-02T00:59:43.361Z,14.91
2017-04-02T01:00:05.127Z,14.90
2017-04-02T01:00:26.842Z,14.82
2017-04-02T01:00:48.582Z,14.88
2017-04-02T01:01:10.279Z,14.91
2017-04-02T01:01:32.034Z,14.89
2017-04-02T01:01:53.745Z,14.81
2017-04-02T01:02:15.458Z,14.70
2017-04-02T01:02:37.165Z,14.76
2017-04-02T01:02:58.888Z,14.93
2017-04-02T01:03:20.580Z,14.96
2017-04-02T01:03:51.825Z,14.83
2017-04-02T01:04:13.595Z,14.81
2017-04-02T01:05:20.896Z,14.66
2017-04-02T01:05:42.667Z,14.59
2017-04-02T01:06:09.148Z,14.56
2017-04-02T01:06:30.832Z,14.74
2017-04-02T01:06:52.578Z,14.75
2017-04-02T01:07:28.639Z,14.84
2017-04-02T01:07:50.855Z,14.73
2017-04-02T01:08:17.377Z,14.85
2017-04-02T01:08:48.644Z,14.78
2017-04-02T01:09:10.338Z,14.77
2017-04-02T01:09:32.087Z,14.75
2017-04-02T01:09:58.557Z,14.62
2017-04-02T01:10:20.249Z,14.44
2017-04-02T01:10:46.853Z,14.49
2017-04-02T01:11:08.569Z,14.60
2017-04-02T01:11:39.829Z,14.62
2017-04-02T01:12:01.580Z,14.54
2017-04-02T01:12:23.280Z,14.59
2017-04-02T01:12:49.774Z,14.68
2017-04-02T01:13:11.520Z,14.60
2017-04-02T01:13:33.218Z,14.56
2017-04-02T01:13:54.928Z,14.62
2017-04-02T01:14:16.624Z,14.66
2017-04-02T01:14:38.321Z,14.71
2017-04-02T01:15:04.842Z,14.79
2017-04-02T01:15:26.545Z,14.77
2017-04-02T01:15:48.320Z,14.67
2017-04-02T01:16:14.808Z,14.27
2017-04-02T01:16:36.490Z,14.27
2017-04-02T01:17:03.032Z,14.47
2017-04-02T01:17:24.743Z,14.59
2017-04-02T01:17:46.445Z,14.67
2017-04-02T01:18:08.166Z,14.75
2017-04-02T01:18:29.962Z,14.75
2017-04-02T01:18:51.711Z,14.78
2017-04-02T01:19:18.182Z,14.67
2017-04-02T01:19:39.875Z,14.53
2017-04-02T01:20:01.555Z,14.39
2017-04-02T01:20:32.829Z,14.46
2017-04-02T01:20:54.524Z,14.41
2017-04-02T01:21:16.310Z,14.36
2017-04-02T01:21:38.024Z,14.49
2017-04-02T01:21:59.712Z,14.43
2017-04-02T01:22:21.411Z,14.43
2017-04-02T01:22:57.468Z,14.46
2017-04-02T01:23:24.603Z,14.50
2017-04-02T01:23:46.306Z,14.49
2017-04-02T01:24:08.007Z,14.55
2017-04-02T01:24:29.704Z,14.57
2017-04-02T01:24:51.426Z,14.62
2017-04-02T01:25:13.201Z,14.47
2017-04-02T01:25:40.668Z,14.39
2017-04-02T01:26:02.355Z,14.36
2017-04-02T01:26:28.895Z,14.27
2017-04-02T01:26:50.591Z,14.41
2017-04-02T01:27:12.286Z,14.41
2017-04-02T01:27:33.985Z,14.51
2017-04-02T01:27:55.671Z,14.51
2017-04-02T01:28:17.367Z,14.50
2017-04-02T01:28:43.884Z,14.37
2017-04-02T01:29:05.579Z,14.46
2017-04-02T01:29:27.350Z,14.54
2017-04-02T01:29:58.607Z,14.62
2017-04-02T01:30:20.302Z,14.52
2017-04-02T01:30:51.683Z,14.33
2017-04-02T01:31:13.376Z,14.19
2017-04-02T01:31:39.846Z,13.96
2017-04-02T01:32:01.545Z,14.01
2017-04-02T01:32:28.067Z,14.01
2017-04-02T01:32:49.768Z,14.11
2017-04-02T01:33:11.473Z,14.23
2017-04-02T01:34:18.769Z,14.44
2017-04-02T01:34:40.463Z,14.37
2017-04-02T01:35:11.845Z,14.16
2017-04-02T01:35:33.426Z,14.24
2017-04-02T01:35:55.146Z,14.30
2017-04-02T01:36:21.623Z,14.34
2017-04-02T01:36:43.398Z,14.29
2017-04-02T01:37:05.098Z,14.36
2017-04-02T01:37:26.818Z,14.43
2017-04-02T01:37:48.511Z,14.45
2017-04-02T01:38:10.244Z,14.46
2017-04-02T01:38:36.711Z,14.41
2017-04-02T01:38:58.413Z,14.44
2017-04-02T01:39:29.664Z,14.41
2017-04-02T01:39:51.349Z,14.41
2017-04-02T01:40:22.624Z,14.39
2017-04-02T01:40:44.384Z,14.31
2017-04-02T01:41:15.628Z,14.24
2017-04-02T01:41:37.350Z,14.18
2017-04-02T01:41:59.099Z,14.25
2017-04-02T01:42:30.354Z,14.34
2017-04-02T01:42:52.047Z,14.39
2017-04-02T01:43:13.808Z,14.53
2017-04-02T01:43:49.865Z,14.68
2017-04-02T01:44:12.060Z,14.73
2017-04-02T01:44:43.380Z,14.82
2017-04-02T01:45:05.082Z,14.68
2017-04-02T01:45:26.792Z,14.65
2017-04-02T01:45:53.268Z,14.59
2017-04-02T01:46:15.043Z,14.67
2017-04-02T01:46:46.308Z,14.76
2017-04-02T01:47:07.999Z,14.71
2017-04-02T01:47:29.752Z,14.64
2017-04-02T01:47:51.454Z,14.63
2017-04-02T01:48:13.149Z,14.60
2017-04-02T01:48:34.853Z,14.63
2017-04-02T01:49:01.383Z,14.50
2017-04-02T01:49:23.082Z,14.51
2017-04-02T01:49:44.796Z,14.57
2017-04-02T01:50:11.280Z,14.42
2017-04-02T01:50:32.994Z,14.48
2017-04-02T01:50:54.691Z,14.52
2017-04-02T01:51:21.170Z,14.41
2017-04-02T01:51:42.968Z,14.33
2017-04-02T01:52:04.668Z,14.29
2017-04-02T01:52:26.370Z,14.27
2017-04-02T01:52:48.062Z,14.11
2017-04-02T01:53:14.591Z,14.17
2017-04-02T01:53:36.290Z,14.29
2017-04-02T01:54:07.548Z,14.36
2017-04-02T01:54:29.304Z,14.36
2017-04-02T01:54:51.001Z,14.43
2017-04-02T01:55:17.476Z,14.28
2017-04-02T01:55:39.194Z,14.26
2017-04-02T01:56:00.893Z,14.34
2017-04-02T01:56:27.383Z,14.16
2017-04-02T01:56:49.171Z,14.13
2017-04-02T01:57:56.456Z,14.28
2017-04-02T01:58:18.164Z,14.36
2017-04-02T01:58:49.458Z,14.39
2017-04-02T01:59:11.163Z,14.30
2017-04-02T01:59:47.212Z,14.21
2017-04-02T02:00:09.489Z,14.24
2017-04-02T02:00:40.750Z,14.04
2017-04-02T02:01:02.448Z,14.09
2017-04-02T02:01:28.995Z,14.23
2017-04-02T02:01:50.702Z,14.34
2017-04-02T02:02:17.199Z,14.42
2017-04-02T02:02:38.893Z,14.25
2017-04-02T02:03:05.441Z,14.28
2017-04-02T02:03:27.176Z,14.31
2017-04-02T02:03:48.873Z,14.34
2017-04-02T02:04:15.354Z,14.13
2017-04-02T02:04:37.125Z,14.14
2017-04-02T02:05:03.599Z,14.08
2017-04-02T02:05:25.288Z,13.91
2017-04-02T02:05:51.808Z,13.81
2017-04-02T02:06:13.513Z,13.78
2017-04-02T02:06:40.002Z,13.84
2017-04-02T02:07:01.744Z,13.95
2017-04-02T02:07:28.284Z,14.07
2017-04-02T02:07:50.008Z,14.14
2017-04-02T02:08:16.495Z,14.22
2017-04-02T02:08:38.211Z,14.28
2017-04-02T02:08:59.983Z,14.31
2017-04-02T02:09:26.462Z,14.36
2017-04-02T02:09:48.174Z,14.39
2017-04-02T02:10:14.704Z,14.39
2017-04-02T02:10:36.421Z,14.46
2017-04-02T02:11:07.689Z,14.47
2017-04-02T02:11:29.390Z,14.48
2017-04-02T02:11:51.179Z,14.35
2017-04-02T02:12:17.665Z,14.31
2017-04-02T02:12:39.373Z,14.30
2017-04-02T02:13:05.923Z,14.40
2017-04-02T02:13:27.647Z,14.41
2017-04-02T02:13:54.126Z,14.56
2017-04-02T02:14:15.830Z,14.57
2017-04-02T02:14:37.602Z,14.58
2017-04-02T02:15:04.103Z,14.43
2017-04-02T02:15:25.798Z,14.47
2017-04-02T02:15:47.580Z,14.42
2017-04-02T02:16:50.120Z,14.41
2017-04-02T02:17:16.811Z,14.50
2017-04-02T02:17:52.868Z,14.39
2017-04-02T02:18:15.080Z,14.29
2017-04-02T02:18:46.338Z,14.14
2017-04-02T02:19:08.039Z,14.10
2017-04-02T02:19:39.297Z,13.89
2017-04-02T02:20:01.079Z,13.94
2017-04-02T02:20:27.606Z,14.00
2017-04-02T02:20:49.329Z,14.08
2017-04-02T02:21:15.878Z,14.16
2017-04-02T02:21:37.571Z,14.33
2017-04-02T02:21:59.270Z,14.33
2017-04-02T02:22:30.584Z,14.32
2017-04-02T02:22:52.316Z,14.31
2017-04-02T02:23:18.800Z,14.31
2017-04-02T02:23:40.502Z,14.24
2017-04-02T02:24:02.268Z,14.15
2017-04-02T02:24:28.750Z,14.03
2017-04-02T02:24:50.452Z,13.93
2017-04-02T02:25:12.195Z,13.89
2017-04-02T02:25:38.667Z,13.90
2017-04-02T02:26:00.355Z,13.90
2017-04-02T02:26:22.051Z,13.98
2017-04-02T02:26:53.303Z,13.95
2017-04-02T02:27:15.013Z,14.10
2017-04-02T02:27:41.501Z,14.10
2017-04-02T02:28:03.317Z,13.89
2017-04-02T02:28:25.053Z,13.90
2017-04-02T02:28:51.527Z,14.01
2017-04-02T02:29:13.327Z,14.08
2017-04-02T02:29:35.039Z,13.95
2017-04-02T02:30:01.524Z,14.12
2017-04-02T02:30:23.226Z,14.13
2017-04-02T02:30:49.753Z,14.15
2017-04-02T02:31:11.440Z,14.16
2017-04-02T02:31:33.154Z,14.06
2017-04-02T02:32:09.316Z,14.07
2017-04-02T02:32:31.595Z,14.06
2017-04-02T02:32:53.310Z,14.08
2017-04-02T02:33:24.631Z,14.14
2017-04-02T02:33:46.356Z,14.05
2017-04-02T02:34:08.055Z,14.00
2017-04-02T02:34:29.849Z,14.07
2017-04-02T02:34:51.628Z,14.05
2017-04-02T02:35:22.958Z,14.07
2017-04-02T02:35:44.743Z,14.02
2017-04-02T02:36:06.460Z,14.03
2017-04-02T02:36:32.943Z,14.06
2017-04-02T02:36:54.749Z,14.10
2017-04-02T02:37:26.010Z,14.16
2017-04-02T02:37:47.845Z,14.14
2017-04-02T02:38:19.119Z,13.89
2017-04-02T02:38:40.910Z,13.93
2017-04-02T02:39:12.222Z,14.06
2017-04-02T02:39:33.933Z,14.02
2017-04-02T02:39:55.636Z,13.88
2017-04-02T02:40:22.216Z,13.90
2017-04-02T02:40:43.916Z,13.71
2017-04-02T02:41:10.429Z,13.67
2017-04-02T02:41:32.123Z,13.68
2017-04-02T02:41:53.889Z,13.72
2017-04-02T02:42:25.145Z,13.90
2017-04-02T02:42:46.838Z,13.87
2017-04-02T02:43:23.008Z,13.88
2017-04-02T02:43:45.301Z,13.86
2017-04-02T02:44:47.868Z,13.78
2017-04-02T02:45:09.567Z,13.60
2017-04-02T02:45:31.274Z,13.58
2017-04-02T02:46:02.586Z,13.59
2017-04-02T02:46:24.311Z,13.51
2017-04-02T02:47:00.347Z,13.52
2017-04-02T02:47:22.604Z,13.55
2017-04-02T02:47:49.075Z,13.52
2017-04-02T02:48:15.569Z,13.38
2017-04-02T02:48:37.346Z,13.24
2017-04-02T02:49:03.826Z,13.30
2017-04-02T02:49:25.533Z,13.31
2017-04-02T02:49:56.868Z,13.34
2017-04-02T02:50:18.588Z,13.28
2017-04-02T02:50:45.068Z,13.32
2017-04-02T02:51:06.775Z,13.43
2017-04-02T02:51:33.320Z,13.54
2017-04-02T02:51:55.005Z,13.64
2017-04-02T02:52:21.477Z,13.75
2017-04-02T02:52:43.268Z,13.75
2017-04-02T02:53:09.774Z,13.69
2017-04-02T02:53:31.462Z,13.61
2017-04-02T02:53:58.002Z,13.68
2017-04-02T02:54:29.268Z,13.71
2017-04-02T02:55:00.545Z,13.77
2017-04-02T02:55:22.354Z,13.95
2017-04-02T02:55:44.052Z,14.02
2017-04-02T02:56:10.528Z,13.99
2017-04-02T02:56:32.313Z,13.88
2017-04-02T02:57:08.371Z,13.80
2017-04-02T02:57:30.588Z,13.76
2017-04-02T02:57:57.140Z,13.66
2017-04-02T02:58:18.827Z,13.66
2017-04-02T02:58:40.535Z,13.67
2017-04-02T02:59:02.236Z,13.75
2017-04-02T02:59:24.021Z,13.82
2017-04-02T02:59:45.729Z,13.84
2017-04-02T03:00:07.442Z,13.78
2017-04-02T03:00:33.989Z,13.64
2017-04-02T03:00:55.729Z,13.64
2017-04-02T03:01:17.446Z,13.62
2017-04-02T03:01:48.756Z,13.72
2017-04-02T03:02:10.448Z,13.69
2017-04-02T03:02:32.150Z,13.69
2017-04-02T03:03:03.461Z,13.64
2017-04-02T03:03:25.172Z,13.75
2017-04-02T03:03:46.864Z,13.66
2017-04-02T03:04:08.579Z,13.59
2017-04-02T03:04:30.374Z,13.61
2017-04-02T03:04:52.077Z,13.59
2017-04-02T03:05:13.785Z,13.59
2017-04-02T03:05:35.504Z,13.64
2017-04-02T03:05:57.290Z,13.66
2017-04-02T03:06:23.782Z,13.75
2017-04-02T03:06:45.525Z,13.78
2017-04-02T03:07:12.061Z,13.77
2017-04-02T03:07:33.777Z,13.83
2017-04-02T03:07:55.473Z,13.71
2017-04-02T03:08:26.812Z,13.66
2017-04-02T03:09:38.041Z,13.56
2017-04-02T03:10:07.230Z,13.42
2017-04-02T03:10:29.529Z,13.43
2017-04-02T03:10:58.694Z,13.41
2017-04-02T03:11:20.473Z,13.29
2017-04-02T03:11:42.269Z,13.13
2017-04-02T03:12:30.908Z,13.16
2017-04-02T03:12:58.632Z,13.23
2017-04-02T03:13:20.428Z,13.36
2017-04-02T03:13:42.214Z,13.29
2017-04-02T03:14:07.216Z,13.15
2017-04-02T03:14:28.998Z,13.19
2017-04-02T03:14:50.737Z,13.16
2017-04-02T03:15:12.542Z,13.14
2017-04-02T03:15:40.248Z,13.18
2017-04-02T03:16:04.800Z,13.15
2017-04-02T03:16:29.139Z,13.21
2017-04-02T03:16:50.907Z,13.21
2017-04-02T03:17:15.349Z,13.20
2017-04-02T03:17:40.189Z,13.08
2017-04-02T03:18:02.073Z,12.93
2017-04-02T03:18:31.665Z,12.95
2017-04-02T03:18:53.836Z,13.05
2017-04-02T03:19:15.532Z,13.20
2017-04-02T03:19:37.233Z,13.24
2017-04-02T03:19:59.501Z,13.23
2017-04-02T03:20:24.225Z,13.39
2017-04-02T03:20:45.957Z,13.51
2017-04-02T03:21:07.675Z,13.57
2017-04-02T03:21:29.924Z,13.47
2017-04-02T03:22:21.385Z,13.14
2017-04-02T03:22:43.073Z,13.15
2017-04-02T03:23:04.999Z,13.14
2017-04-02T03:23:27.163Z,13.11
2017-04-02T03:23:49.903Z,13.17
2017-04-02T03:24:11.718Z,13.21
2017-04-02T03:24:33.515Z,13.30
2017-04-02T03:25:01.266Z,13.44
2017-04-02T03:25:23.006Z,13.54
2017-04-02T03:25:44.969Z,13.45
2017-04-02T03:26:07.096Z,13.44
2017-04-02T03:26:33.600Z,13.56
2017-04-02T03:27:00.478Z,13.55
2017-04-02T03:27:22.213Z,13.66
2017-04-02T03:27:49.225Z,13.64
2017-04-02T03:28:13.457Z,13.64
2017-04-02T03:28:40.012Z,13.50
2017-04-02T03:29:01.699Z,13.48
2017-04-02T03:29:23.453Z,13.58
2017-04-02T03:29:45.205Z,13.71
2017-04-02T03:30:07.116Z,13.68
2017-04-02T03:30:28.916Z,13.65
2017-04-02T03:30:50.831Z,13.69
2017-04-02T03:31:15.327Z,13.52
2017-04-02T03:31:37.043Z,13.54
2017-04-02T03:32:28.260Z,13.47
2017-04-02T03:32:53.218Z,13.38
2017-04-02T03:33:18.013Z,13.46
2017-04-02T03:33:39.812Z,13.32
2017-04-02T03:34:02.239Z,13.27
2017-04-02T03:34:24.185Z,13.36
2017-04-02T03:34:54.373Z,13.49
2017-04-02T03:35:16.255Z,13.60
2017-04-02T03:35:38.560Z,13.73
2017-04-02T03:36:00.356Z,13.68
2017-04-02T03:36:22.195Z,13.74
2017-04-02T03:36:44.120Z,13.59
2017-04-02T03:37:05.823Z,13.57
2017-04-02T03:37:27.520Z,13.53
2017-04-02T03:37:52.246Z,13.48
2017-04-02T03:38:14.008Z,13.31
2017-04-02T03:38:45.371Z,13.21
2017-04-02T03:39:14.211Z,13.36
2017-04-02T03:39:36.057Z,13.45
2017-04-02T03:39:57.850Z,13.32
2017-04-02T03:40:22.139Z,13.37
2017-04-02T03:40:46.552Z,13.32
2017-04-02T03:41:08.455Z,13.41
2017-04-02T03:41:30.203Z,13.20
2017-04-02T03:41:52.236Z,13.13
2017-04-02T03:42:13.935Z,13.28
2017-04-02T03:42:40.503Z,13.22
2017-04-02T03:43:02.367Z,13.18
2017-04-02T03:43:28.938Z,13.30
2017-04-02T03:43:55.960Z,13.45
2017-04-02T03:44:17.884Z,13.51
2017-04-02T03:45:24.959Z,13.54
2017-04-02T03:45:51.828Z,13.57
2017-04-02T03:46:16.761Z,13.50
2017-04-02T03:46:38.869Z,13.47
2017-04-02T03:47:00.625Z,13.57
2017-04-02T03:47:22.432Z,13.55
2017-04-02T03:47:44.479Z,13.60
2017-04-02T03:48:08.844Z,13.51
2017-04-02T03:48:33.150Z,13.40
2017-04-02T03:48:55.048Z,13.45
2017-04-02T03:49:26.497Z,13.51
2017-04-02T03:49:52.947Z,13.66
2017-04-02T03:50:14.955Z,13.74
2017-04-02T03:50:36.769Z,13.76
2017-04-02T03:50:58.850Z,13.76
2017-04-02T03:51:21.059Z,13.71
2017-04-02T03:51:42.922Z,13.70
2017-04-02T03:52:10.350Z,13.74
2017-04-02T03:52:32.313Z,13.67
2017-04-02T03:52:54.010Z,13.66
2017-04-02T03:53:45.663Z,13.67
2017-04-02T03:54:07.395Z,13.74
2017-04-02T03:54:31.927Z,13.80
2017-04-02T03:54:53.633Z,13.63
2017-04-02T03:55:18.636Z,13.60
2017-04-02T03:55:45.306Z,13.45
2017-04-02T03:56:12.044Z,13.44
2017-04-02T03:56:38.551Z,13.55
2017-04-02T03:57:39.174Z,13.41
2017-04-02T03:58:01.190Z,13.44
2017-04-02T03:58:28.189Z,13.39
2017-04-02T03:58:59.869Z,13.43
2017-04-02T03:59:21.825Z,13.31
2017-04-02T03:59:49.325Z,13.27
2017-04-02T04:00:11.208Z,13.35
2017-04-02T04:00:37.737Z,13.40
2017-04-02T04:00:59.696Z,13.38
2017-04-02T04:01:24.237Z,13.39
2017-04-02T04:01:46.420Z,13.49
2017-04-02T04:02:08.179Z,13.64
2017-04-02T04:02:29.963Z,13.71
2017-04-02T04:02:51.973Z,13.86
2017-04-02T04:03:14.409Z,14.02
2017-04-02T04:03:39.058Z,14.00
2017-04-02T04:04:13.605Z,13.84
2017-04-02T04:04:38.176Z,13.95
2017-04-02T04:04:59.863Z,14.02
2017-04-02T04:05:21.741Z,14.00
2017-04-02T04:05:43.655Z,13.90
2017-04-02T04:06:05.376Z,13.85
2017-04-02T04:07:12.892Z,13.81
2017-04-02T04:07:39.872Z,13.71
2017-04-02T04:08:01.985Z,13.72
2017-04-02T04:08:23.720Z,13.63
2017-04-02T04:08:46.133Z,13.70
2017-04-02T04:09:08.186Z,13.60
2017-04-02T04:09:34.760Z,13.59
2017-04-02T04:09:56.493Z,13.41
2017-04-02T04:10:18.511Z,13.21
2017-04-02T04:10:54.543Z,13.18
2017-04-02T04:11:24.478Z,13.30
2017-04-02T04:11:53.899Z,13.37
2017-04-02T04:12:18.504Z,13.18
2017-04-02T04:12:40.333Z,13.14
2017-04-02T04:13:28.931Z,13.37
2017-04-02T04:13:50.696Z,13.32
2017-04-02T04:14:15.692Z,13.38
2017-04-02T04:14:42.819Z,13.50
2017-04-02T04:15:07.074Z,13.46
2017-04-02T04:15:28.938Z,13.43
2017-04-02T04:15:50.922Z,13.50
2017-04-02T04:16:12.865Z,13.51
2017-04-02T04:16:37.415Z,13.43
2017-04-02T04:17:04.418Z,13.52
2017-04-02T04:17:27.413Z,13.60
2017-04-02T04:17:52.547Z,13.47
2017-04-02T04:18:14.458Z,13.54
2017-04-02T04:18:50.419Z,13.66
2017-04-02T04:19:12.310Z,13.60
2017-04-02T04:19:34.136Z,13.65
2017-04-02T04:19:55.886Z,13.70
2017-04-02T04:20:21.178Z,13.83
2017-04-02T04:20:43.197Z,13.91
2017-04-02T04:21:04.969Z,13.90
2017-04-02T04:21:31.454Z,13.84
2017-04-02T04:21:53.154Z,13.71
2017-04-02T04:22:24.418Z,13.65
2017-04-02T04:22:46.107Z,13.67
2017-04-02T04:23:07.808Z,13.62
2017-04-02T04:23:34.376Z,13.49
2017-04-02T04:23:56.096Z,13.60
2017-04-02T04:24:17.794Z,13.59
2017-04-02T04:24:39.540Z,13.62
2017-04-02T04:25:01.327Z,13.51
2017-04-02T04:25:23.039Z,13.58
2017-04-02T04:25:44.749Z,13.65
2017-04-02T04:26:06.497Z,13.66
2017-04-02T04:26:28.223Z,13.59
2017-04-02T04:26:54.697Z,13.62
2017-04-02T04:27:16.411Z,13.61
2017-04-02T04:27:38.220Z,13.57
2017-04-02T04:28:04.723Z,13.44
2017-04-02T04:28:26.443Z,13.47
2017-04-02T04:28:52.985Z,13.43
2017-04-02T04:29:14.707Z,13.41
2017-04-02T04:29:36.431Z,13.48
2017-04-02T04:30:02.930Z,13.41
2017-04-02T04:30:24.701Z,13.24
2017-04-02T04:31:00.761Z,13.20
2017-04-02T04:31:32.525Z,13.23
2017-04-02T04:32:03.844Z,13.32
2017-04-02T04:32:25.548Z,13.37
2017-04-02T04:32:56.797Z,13.38
2017-04-02T04:33:18.729Z,13.23
2017-04-02T04:33:40.451Z,13.07
2017-04-02T04:34:06.946Z,13.07
2017-04-02T04:34:28.753Z,13.11
2017-04-02T04:35:00.038Z,13.20
2017-04-02T04:35:21.745Z,13.34
2017-04-02T04:35:53.131Z,13.39
2017-04-02T04:36:14.841Z,13.43
2017-04-02T04:36:46.141Z,13.11
2017-04-02T04:37:07.908Z,13.00
2017-04-02T04:37:39.164Z,13.16
2017-04-02T04:38:00.910Z,13.10
2017-04-02T04:39:08.287Z,13.01
2017-04-02T04:39:30.087Z,12.96
2017-04-02T04:39:52.036Z,12.90
2017-04-02T04:40:23.280Z,12.97
2017-04-02T04:40:44.995Z,12.92
2017-04-02T04:41:14.363Z,13.06
2017-04-02T04:42:07.335Z,13.24
2017-04-02T04:42:29.184Z,13.37
2017-04-02T04:43:05.234Z,13.18
2017-04-02T04:43:27.419Z,13.20
2017-04-02T04:43:58.684Z,13.38
2017-04-02T04:44:21.453Z,13.42
2017-04-02T04:44:57.501Z,13.50
2017-04-02T04:45:19.764Z,13.50
2017-04-02T04:46:58.977Z,13.14
2017-04-02T04:47:20.689Z,13.20
2017-04-02T04:47:42.397Z,13.34
2017-04-02T04:48:04.198Z,13.45
2017-04-02T04:48:25.932Z,13.58
2017-04-02T04:48:50.055Z,13.51
2017-04-02T04:49:11.756Z,13.43
2017-04-02T04:49:38.364Z,13.43
2017-04-02T04:50:00.095Z,13.42
2017-04-02T04:50:31.376Z,13.22
2017-04-02T04:50:53.153Z,13.16
2017-04-02T04:51:14.927Z,13.12
2017-04-02T04:51:41.472Z,13.18
2017-04-02T04:52:03.176Z,13.31
2017-04-02T04:52:24.885Z,13.38
2017-04-02T04:52:51.367Z,13.42
2017-04-02T04:53:13.130Z,13.37
2017-04-02T04:53:34.874Z,13.34
2017-04-02T04:54:06.142Z,13.36
2017-04-02T04:54:27.976Z,13.39
2017-04-02T04:55:40.148Z,13.42
2017-04-02T04:56:07.704Z,13.48
2017-04-02T04:56:29.419Z,13.44
2017-04-02T04:56:51.186Z,13.44
2017-04-02T04:57:12.922Z,13.53
2017-04-02T04:57:39.405Z,13.47
2017-04-02T04:58:01.110Z,13.42
2017-04-02T04:58:22.826Z,13.35
2017-04-02T04:59:25.477Z,13.58
2017-04-02T04:59:47.177Z,13.34
2017-04-02T05:00:08.924Z,13.33
2017-04-02T05:00:44.976Z,13.14
2017-04-02T05:01:07.173Z,13.13
2017-04-02T05:01:28.872Z,13.24
2017-04-02T05:01:50.570Z,13.36
2017-04-02T05:02:17.096Z,13.44
2017-04-02T05:02:38.813Z,13.44
2017-04-02T05:03:05.336Z,13.27
2017-04-02T05:03:27.118Z,13.37
2017-04-02T05:03:48.846Z,13.33
2017-04-02T05:04:15.310Z,13.38
2017-04-02T05:04:37.045Z,13.43
2017-04-02T05:05:08.354Z,13.48
2017-04-02T05:05:30.044Z,13.58
2017-04-02T05:06:01.434Z,13.50
2017-04-02T05:06:23.136Z,13.47
2017-04-02T05:06:49.628Z,13.48
2017-04-02T05:07:11.321Z,13.41
2017-04-02T05:07:37.877Z,13.49
2017-04-02T05:07:59.652Z,13.54
2017-04-02T05:08:26.178Z,13.42
2017-04-02T05:08:47.928Z,13.41
2017-04-02T05:09:19.194Z,13.35
2017-04-02T05:09:40.928Z,13.34
2017-04-02T05:10:07.447Z,13.31
2017-04-02T05:10:29.195Z,13.36
2017-04-02T05:11:05.224Z,13.30
2017-04-02T05:11:27.421Z,13.17
2017-04-02T05:11:53.933Z,13.09
2017-04-02T05:12:20.506Z,13.12
2017-04-02T05:12:42.220Z,13.10
2017-04-02T05:13:03.935Z,13.09
2017-04-02T05:13:25.647Z,13.13
2017-04-02T05:13:47.363Z,13.23
2017-04-02T05:14:09.087Z,13.26
2017-04-02T05:14:35.569Z,13.23
2017-04-02T05:14:57.336Z,13.04
2017-04-02T05:15:23.801Z,13.17
2017-04-02T05:15:45.554Z,13.10
2017-04-02T05:16:48.062Z,13.18
2017-04-02T05:17:09.800Z,13.28
2017-04-02T05:17:31.517Z,13.30
2017-04-02T05:17:58.006Z,13.15
2017-04-02T05:18:19.756Z,13.11
2017-04-02T05:19:22.258Z,13.14
2017-04-02T05:19:44.001Z,13.21
2017-04-02T05:20:15.278Z,13.12
2017-04-02T05:20:37.026Z,13.22
2017-04-02T05:20:58.859Z,13.27
2017-04-02T05:22:01.419Z,13.25
2017-04-02T05:22:23.164Z,13.28
2017-04-02T05:22:59.200Z,13.09
2017-04-02T05:23:21.445Z,13.06
2017-04-02T05:23:43.301Z,13.10
2017-04-02T05:24:19.339Z,13.19
2017-04-02T05:24:41.566Z,13.21
2017-04-02T05:25:08.072Z,13.16
2017-04-02T05:25:34.627Z,13.07
2017-04-02T05:25:56.361Z,13.10
2017-04-02T05:26:27.647Z,13.06
2017-04-02T05:26:49.363Z,13.01
2017-04-02T05:27:15.865Z,13.09
2017-04-02T05:27:37.642Z,13.16
2017-04-02T05:28:09.012Z,13.35
2017-04-02T05:28:30.754Z,13.37
2017-04-02T05:28:52.514Z,13.34
2017-04-02T05:29:14.240Z,13.22
2017-04-02T05:29:35.948Z,13.22
2017-04-02T05:30:07.197Z,13.21
2017-04-02T05:30:29.030Z,13.30
2017-04-02T05:31:00.296Z,13.18